createdAt,value
2022-11-12T00:00:19.356Z,10.81
2022-11-12T00:01:17.540Z,10.78
2022-11-12T00:02:17.662Z,10.75
2022-11-12T00:03:17.804Z,10.74
2022-11-12T00:04:17.942Z,10.73
2022-11-12T00:05:17.777Z,10.75
2022-11-12T00:06:17.858Z,10.72
2022-11-12T00:07:17.919Z,10.69
2022-11-12T00:08:17.311Z,10.69
2022-11-12T00:09:17.199Z,10.75
2022-11-12T00:10:17.082Z,10.75
2022-11-12T00:11:16.866Z,10.75
2022-11-12T00:12:17.888Z,10.68
2022-11-12T00:13:18.181Z,10.68
2022-11-12T00:14:17.025Z,10.72
2022-11-12T00:15:17.330Z,10.75
2022-11-12T00:16:17.291Z,10.70
2022-11-12T00:17:17.123Z,10.68
2022-11-12T00:18:17.016Z,10.68
2022-11-12T00:19:16.728Z,10.68
2022-11-12T00:20:17.997Z,10.68
2022-11-12T00:21:17.157Z,10.68
2022-11-12T00:22:16.947Z,10.68
2022-11-12T00:23:18.110Z,10.68
2022-11-12T00:24:16.591Z,10.68
2022-11-12T00:25:17.863Z,10.68
2022-11-12T00:26:17.675Z,10.65
2022-11-12T00:27:17.687Z,10.63
2022-11-12T00:28:17.225Z,10.62
2022-11-12T00:29:16.994Z,10.65
2022-11-12T00:30:17.062Z,10.62
2022-11-12T00:31:16.774Z,10.62
2022-11-12T00:32:18.009Z,10.62
2022-11-12T00:33:16.768Z,10.62
2022-11-12T00:34:22.375Z,10.62
2022-11-12T00:35:20.145Z,10.62
2022-11-12T00:36:21.928Z,10.62
2022-11-12T00:37:17.511Z,10.62
2022-11-12T00:38:17.181Z,10.62
2022-11-12T00:39:17.048Z,10.62
2022-11-12T00:40:16.700Z,10.61
2022-11-12T00:41:17.121Z,10.56
2022-11-12T00:42:16.921Z,10.56
2022-11-12T00:43:17.807Z,10.56
2022-11-12T00:44:31.207Z,10.56
2022-11-12T00:45:17.147Z,10.56
2022-11-12T00:46:16.591Z,10.56
2022-11-12T00:47:17.205Z,10.53
2022-11-12T00:48:16.603Z,10.55
2022-11-12T00:49:17.099Z,10.54
2022-11-12T00:50:16.495Z,10.56
2022-11-12T00:51:17.169Z,10.5
2022-11-12T00:52:16.505Z,10.5
2022-11-12T00:53:17.302Z,10.5
2022-11-12T00:54:16.980Z,10.5
2022-11-12T00:55:18.171Z,10.5
2022-11-12T00:56:17.083Z,10.5
2022-11-12T00:57:16.784Z,10.5
2022-11-12T00:58:17.682Z,10.5
2022-11-12T00:59:17.466Z,10.48
2022-11-12T01:00:18.553Z,10.5
2022-11-12T01:01:20.187Z,10.5
2022-11-12T01:02:17.088Z,10.44
2022-11-12T01:03:16.904Z,10.43
2022-11-12T01:04:17.780Z,10.43
2022-11-12T01:05:18.257Z,10.43
2022-11-12T01:06:17.112Z,10.43
2022-11-12T01:07:17.065Z,10.43
2022-11-12T01:08:16.699Z,10.44
2022-11-12T01:09:17.556Z,10.5
2022-11-12T01:10:17.255Z,10.5
2022-11-12T01:11:17.172Z,10.48
2022-11-12T01:12:17.069Z,10.43
2022-11-12T01:13:16.946Z,10.46
2022-11-12T01:14:17.757Z,10.44
2022-11-12T01:15:17.656Z,10.43
2022-11-12T01:16:17.267Z,10.43
2022-11-12T01:17:16.886Z,10.45
2022-11-12T01:18:17.404Z,10.43
2022-11-12T01:19:17.335Z,10.43
2022-11-12T01:20:17.012Z,10.43
2022-11-12T01:21:16.460Z,10.42
2022-11-12T01:22:17.161Z,10.42
2022-11-12T01:23:17.026Z,10.40
2022-11-12T01:24:16.873Z,10.43
2022-11-12T01:25:18.011Z,10.43
2022-11-12T01:26:16.537Z,10.43
2022-11-12T01:27:17.270Z,10.43
2022-11-12T01:28:17.222Z,10.37
2022-11-12T01:29:16.843Z,10.38
2022-11-12T01:30:18.245Z,10.36
2022-11-12T01:31:16.771Z,10.37
2022-11-12T01:32:17.267Z,10.36
2022-11-12T01:33:17.075Z,8.800
2022-11-12T01:34:16.888Z,10.37
2022-11-12T01:35:17.695Z,10.37
2022-11-12T01:36:17.338Z,10.33
2022-11-12T01:37:17.155Z,10.37
2022-11-12T01:38:16.547Z,10.37
2022-11-12T01:39:17.307Z,10.37
2022-11-12T01:40:17.238Z,10.41
2022-11-12T01:41:17.059Z,10.37
2022-11-12T01:42:16.494Z,10.40
2022-11-12T01:43:17.269Z,10.43
2022-11-12T01:44:17.058Z,10.43
2022-11-12T01:45:16.773Z,10.43
2022-11-12T01:46:17.280Z,10.44
2022-11-12T01:47:17.241Z,10.47
2022-11-12T01:48:16.939Z,10.47
2022-11-12T01:49:17.708Z,10.5
2022-11-12T01:50:18.189Z,10.5
2022-11-12T01:51:17.195Z,10.5
2022-11-12T01:52:15.926Z,10.5
2022-11-12T01:53:17.848Z,10.5
2022-11-12T01:54:17.684Z,10.46
2022-11-12T01:55:17.537Z,10.48
2022-11-12T01:56:17.150Z,10.5
2022-11-12T01:57:16.624Z,10.48
2022-11-12T01:58:17.166Z,10.48
2022-11-12T01:59:16.917Z,10.5
2022-11-12T02:00:18.596Z,10.5
2022-11-12T02:01:17.570Z,10.5
2022-11-12T02:02:17.450Z,10.5
2022-11-12T02:03:17.280Z,10.47
2022-11-12T02:04:17.355Z,10.48
2022-11-12T02:05:18.150Z,10.5
2022-11-12T02:06:17.272Z,10.44
2022-11-12T02:07:16.962Z,10.43
2022-11-12T02:08:16.877Z,10.43
2022-11-12T02:09:17.898Z,10.43
2022-11-12T02:10:17.986Z,10.43
2022-11-12T02:11:16.387Z,10.43
2022-11-12T02:12:17.074Z,10.43
2022-11-12T02:13:16.657Z,10.43
2022-11-12T02:14:17.609Z,10.43
2022-11-12T02:15:17.551Z,10.43
2022-11-12T02:16:17.277Z,10.43
2022-11-12T02:17:17.133Z,10.43
2022-11-12T02:18:17.051Z,10.43
2022-11-12T02:19:16.778Z,10.43
2022-11-12T02:20:17.825Z,10.43
2022-11-12T02:21:17.684Z,10.43
2022-11-12T02:22:17.398Z,10.43
2022-11-12T02:23:17.122Z,10.40
2022-11-12T02:24:17.115Z,10.41
2022-11-12T02:25:16.922Z,10.43
2022-11-12T02:26:17.469Z,10.43
2022-11-12T02:27:17.165Z,10.43
2022-11-12T02:28:16.999Z,10.43
2022-11-12T02:29:16.778Z,10.43
2022-11-12T02:30:18.381Z,10.43
2022-11-12T02:31:17.285Z,10.43
2022-11-12T02:32:17.326Z,10.42
2022-11-12T02:33:17.186Z,10.39
2022-11-12T02:34:17.149Z,10.43
2022-11-12T02:35:16.945Z,10.41
2022-11-12T02:36:17.162Z,10.43
2022-11-12T02:37:16.435Z,10.41
2022-11-12T02:38:16.899Z,10.42
2022-11-12T02:39:17.910Z,10.43
2022-11-12T02:40:17.768Z,10.40
2022-11-12T02:41:22.201Z,10.37
2022-11-12T02:42:16.868Z,10.37
2022-11-12T02:43:22.317Z,10.37
2022-11-12T02:44:16.480Z,10.37
2022-11-12T02:45:17.474Z,10.37
2022-11-12T02:46:16.868Z,10.37
2022-11-12T02:47:17.552Z,10.37
2022-11-12T02:49:17.642Z,10.37
2022-11-12T02:50:17.266Z,10.37
2022-11-12T02:51:16.927Z,10.37
2022-11-12T02:52:17.380Z,10.35
2022-11-12T02:53:24.738Z,10.31
2022-11-12T02:54:17.345Z,10.31
2022-11-12T02:55:16.825Z,10.31
2022-11-12T02:56:17.188Z,10.31
2022-11-12T02:57:16.924Z,10.31
2022-11-12T02:58:17.594Z,10.31
2022-11-12T02:59:17.417Z,10.31
2022-11-12T03:00:18.271Z,10.31
2022-11-12T03:01:16.985Z,10.28
2022-11-12T03:02:16.555Z,10.25
2022-11-12T03:03:17.240Z,10.29
2022-11-12T03:04:16.742Z,10.27
2022-11-12T03:05:17.525Z,10.25
2022-11-12T03:06:17.216Z,10.25
2022-11-12T03:07:16.732Z,10.25
2022-11-12T03:08:17.499Z,10.25
2022-11-12T03:09:17.287Z,10.19
2022-11-12T03:10:16.949Z,10.25
2022-11-12T03:11:17.503Z,10.23
2022-11-12T03:12:17.077Z,10.22
2022-11-12T03:13:16.510Z,10.22
2022-11-12T03:14:16.879Z,10.23
2022-11-12T03:15:17.951Z,10.25
2022-11-12T03:16:17.662Z,10.25
2022-11-12T03:17:17.065Z,10.23
2022-11-12T03:18:16.711Z,10.25
2022-11-12T03:19:17.607Z,10.18
2022-11-12T03:20:17.313Z,10.18
2022-11-12T03:21:16.876Z,10.18
2022-11-12T03:22:17.371Z,10.18
2022-11-12T03:23:17.013Z,10.16
2022-11-12T03:24:16.701Z,10.18
2022-11-12T03:25:17.723Z,10.18
2022-11-12T03:26:17.544Z,10.12
2022-11-12T03:27:17.444Z,10.16
2022-11-12T03:28:17.074Z,10.13
2022-11-12T03:29:16.750Z,10.12
2022-11-12T03:30:17.729Z,10.11
2022-11-12T03:31:17.528Z,10.12
2022-11-12T03:32:16.949Z,10.12
2022-11-12T03:33:17.944Z,10.12
2022-11-12T03:34:17.653Z,10.11
2022-11-12T03:35:17.401Z,10.12
2022-11-12T03:36:17.374Z,10.12
2022-11-12T03:37:17.063Z,10.12
2022-11-12T03:38:16.771Z,10.12
2022-11-12T03:39:18.073Z,10.12
2022-11-12T03:40:16.885Z,10.10
2022-11-12T03:41:17.505Z,10.06
2022-11-12T03:42:17.448Z,10.06
2022-11-12T03:43:17.107Z,10.06
2022-11-12T03:44:16.958Z,10.05
2022-11-12T03:45:17.761Z,10.05
2022-11-12T03:46:17.112Z,10.05
2022-11-12T03:47:16.855Z,10.06
2022-11-12T03:48:17.967Z,10.05
2022-11-12T03:49:17.771Z,10
2022-11-12T03:50:17.411Z,10
2022-11-12T03:51:17.141Z,10
2022-11-12T03:52:16.855Z,10.01
2022-11-12T03:53:17.223Z,10.04
2022-11-12T03:54:16.676Z,10.01
2022-11-12T03:55:17.678Z,10
2022-11-12T03:56:17.089Z,10
2022-11-12T03:57:16.543Z,10
2022-11-12T03:58:17.022Z,10
2022-11-12T03:59:16.402Z,10
2022-11-12T04:00:18.086Z,10
2022-11-12T04:01:17.105Z,10
2022-11-12T04:02:16.666Z,10
2022-11-12T04:03:17.348Z,10
2022-11-12T04:04:17.039Z,10
2022-11-12T04:05:16.716Z,10
2022-11-12T04:06:17.413Z,9.989
2022-11-12T04:07:17.030Z,9.989
2022-11-12T04:08:16.500Z,9.989
2022-11-12T04:09:17.227Z,9.958
2022-11-12T04:10:17.114Z,9.937
2022-11-12T04:11:16.906Z,9.937
2022-11-12T04:12:17.595Z,9.937
2022-11-12T04:13:17.432Z,9.937
2022-11-12T04:14:17.058Z,9.937
2022-11-12T04:15:16.527Z,9.968
2022-11-12T04:16:17.093Z,9.937
2022-11-12T04:17:16.839Z,9.937
2022-11-12T04:18:17.481Z,9.937
2022-11-12T04:19:16.997Z,9.937
2022-11-12T04:20:17.135Z,9.937
2022-11-12T04:21:16.920Z,9.937
2022-11-12T04:22:17.546Z,9.937
2022-11-12T04:23:17.219Z,9.885
2022-11-12T04:24:17.003Z,9.875
2022-11-12T04:25:16.872Z,9.875
2022-11-12T04:26:17.426Z,9.875
2022-11-12T04:27:16.933Z,9.875
2022-11-12T04:28:17.478Z,9.875
2022-11-12T04:29:17.059Z,9.875
2022-11-12T04:30:16.999Z,9.875
2022-11-12T04:31:16.334Z,9.875
2022-11-12T04:32:16.801Z,9.875
2022-11-12T04:33:17.467Z,9.875
2022-11-12T04:34:16.873Z,9.843
2022-11-12T04:35:15.952Z,9.864
2022-11-12T04:36:17.836Z,9.833
2022-11-12T04:37:21.080Z,9.864
2022-11-12T04:38:16.916Z,9.843
2022-11-12T04:39:17.854Z,9.875
2022-11-12T04:40:17.610Z,9.822
2022-11-12T04:41:17.022Z,9.812
2022-11-12T04:42:16.750Z,9.837
2022-11-12T04:43:17.316Z,9.812
2022-11-12T04:44:16.960Z,9.812
2022-11-12T04:45:18.020Z,9.812
2022-11-12T04:46:16.431Z,9.824
2022-11-12T04:47:17.093Z,9.812
2022-11-12T04:48:16.854Z,9.812
2022-11-12T04:49:17.512Z,9.812
2022-11-12T04:50:17.345Z,9.812
2022-11-12T04:51:16.975Z,9.812
2022-11-12T04:52:17.479Z,9.801
2022-11-12T04:53:17.156Z,9.803
2022-11-12T04:54:16.449Z,9.812
2022-11-12T04:55:17.297Z,9.801
2022-11-12T04:56:16.847Z,9.812
2022-11-12T04:57:17.567Z,9.781
2022-11-12T04:58:17.127Z,9.75
2022-11-12T04:59:16.992Z,9.75
2022-11-12T05:00:17.971Z,9.75
2022-11-12T05:01:18.253Z,9.75
2022-11-12T05:02:16.985Z,9.75
2022-11-12T05:03:16.703Z,9.75
2022-11-12T05:04:17.367Z,9.75
2022-11-12T05:05:17.330Z,9.75
2022-11-12T05:06:17.060Z,9.75
2022-11-12T05:07:17.303Z,9.75
2022-11-12T05:08:17.131Z,9.75
2022-11-12T05:09:17.058Z,9.75
2022-11-12T05:10:17.020Z,9.75
2022-11-12T05:11:19.359Z,9.75
2022-11-12T05:12:17.013Z,9.75
2022-11-12T05:13:16.395Z,9.75
2022-11-12T05:14:17.047Z,9.75
2022-11-12T05:15:17.040Z,9.687
2022-11-12T05:16:16.731Z,9.697
2022-11-12T05:17:17.488Z,9.687
2022-11-12T05:18:17.080Z,9.739
2022-11-12T05:19:16.458Z,9.75
2022-11-12T05:20:17.273Z,9.75
2022-11-12T05:21:17.093Z,9.75
2022-11-12T05:22:43.447Z,9.75
2022-11-12T05:23:17.486Z,9.75
2022-11-12T05:24:46.309Z,9.687
2022-11-12T05:25:17.685Z,9.687
2022-11-12T05:26:17.391Z,9.739
2022-11-12T05:27:17.182Z,9.708
2022-11-12T05:28:17.248Z,9.718
2022-11-12T05:29:17.154Z,9.718
2022-11-12T05:30:17.306Z,9.687
2022-11-12T05:31:16.969Z,9.687
2022-11-12T05:32:17.509Z,9.687
2022-11-12T05:33:17.019Z,9.687
2022-11-12T05:34:22.614Z,9.687
2022-11-12T05:35:17.089Z,9.687
2022-11-12T05:36:16.661Z,9.687
2022-11-12T05:37:17.592Z,9.687
2022-11-12T05:38:17.199Z,9.687
2022-11-12T05:39:16.985Z,9.687
2022-11-12T05:40:16.670Z,9.687
2022-11-12T05:41:21.076Z,9.687
2022-11-12T05:42:20.376Z,9.676
2022-11-12T05:43:17.070Z,9.676
2022-11-12T05:44:16.451Z,9.687
2022-11-12T05:45:17.484Z,9.645
2022-11-12T05:46:16.894Z,9.635
2022-11-12T05:47:17.697Z,9.676
2022-11-12T05:48:21.505Z,9.625
2022-11-12T05:49:16.766Z,9.625
2022-11-12T05:50:17.724Z,9.625
2022-11-12T05:51:20.456Z,9.625
2022-11-12T05:52:17.133Z,9.625
2022-11-12T05:53:16.698Z,9.625
2022-11-12T05:54:17.360Z,9.625
2022-11-12T05:55:17.263Z,9.625
2022-11-12T05:56:16.627Z,9.625
2022-11-12T05:57:17.463Z,9.625
2022-11-12T05:58:17.024Z,9.625
2022-11-12T05:59:16.749Z,9.625
2022-11-12T06:00:18.690Z,9.583
2022-11-12T06:01:17.623Z,9.604
2022-11-12T06:02:17.542Z,9.625
2022-11-12T06:03:17.324Z,9.583
2022-11-12T06:04:17.017Z,9.562
2022-11-12T06:05:16.876Z,9.562
2022-11-12T06:06:18.057Z,9.562
2022-11-12T06:07:17.632Z,9.562
2022-11-12T06:08:18.114Z,9.572
2022-11-12T06:09:17.026Z,9.572
2022-11-12T06:10:20.780Z,9.562
2022-11-12T06:11:18.111Z,9.562
2022-11-12T06:12:17.006Z,9.562
2022-11-12T06:13:16.892Z,9.562
2022-11-12T06:14:18.057Z,9.562
2022-11-12T06:15:17.190Z,9.562
2022-11-12T06:16:17.147Z,9.551
2022-11-12T06:17:16.909Z,9.5
2022-11-12T06:18:17.591Z,9.5
2022-11-12T06:19:17.425Z,9.531
2022-11-12T06:20:17.123Z,9.562
2022-11-12T06:21:16.397Z,9.562
2022-11-12T06:22:16.785Z,9.549
2022-11-12T06:23:17.486Z,9.5
2022-11-12T06:24:17.253Z,9.512
2022-11-12T06:25:16.881Z,9.535
2022-11-12T06:26:17.625Z,9.537
2022-11-12T06:27:17.739Z,9.517
2022-11-12T06:28:17.722Z,9.512
2022-11-12T06:29:17.626Z,9.551
2022-11-12T06:30:18.067Z,9.551
2022-11-12T06:31:17.054Z,9.562
2022-11-12T06:32:16.812Z,9.541
2022-11-12T06:33:17.646Z,9.562
2022-11-12T06:34:49.740Z,9.562
2022-11-12T06:35:17.445Z,9.562
2022-11-12T06:36:17.339Z,9.562
2022-11-12T06:37:17.185Z,9.562
2022-11-12T06:38:17.094Z,9.562
2022-11-12T06:39:17.534Z,9.593
2022-11-12T06:40:17.478Z,9.593
2022-11-12T06:41:17.268Z,9.562
2022-11-12T06:42:17.348Z,9.562
2022-11-12T06:43:17.229Z,9.562
2022-11-12T06:44:22.007Z,9.572
2022-11-12T06:45:17.373Z,9.583
2022-11-12T06:46:16.981Z,9.604
2022-11-12T06:47:17.169Z,9.562
2022-11-12T06:48:17.273Z,9.583
2022-11-12T06:49:17.010Z,9.625
2022-11-12T06:50:17.631Z,9.625
2022-11-12T06:51:17.514Z,9.604
2022-11-12T06:53:17.896Z,9.604
2022-11-12T06:54:17.983Z,9.625
2022-11-12T06:55:16.533Z,9.593
2022-11-12T06:56:17.001Z,9.562
2022-11-12T06:57:16.712Z,9.562
2022-11-12T06:58:17.975Z,9.562
2022-11-12T06:59:17.659Z,9.562
2022-11-12T07:00:18.304Z,9.562
2022-11-12T07:01:18.824Z,9.551
2022-11-12T07:02:17.531Z,9.520
2022-11-12T07:03:17.696Z,9.5
2022-11-12T07:04:17.536Z,9.5
2022-11-12T07:05:16.950Z,9.520
2022-11-12T07:06:18.046Z,9.5
2022-11-12T07:07:17.630Z,9.531
2022-11-12T07:08:17.326Z,9.551
2022-11-12T07:09:17.135Z,9.5
2022-11-12T07:10:16.994Z,9.520
2022-11-12T07:11:16.484Z,9.541
2022-11-12T07:12:17.283Z,9.531
2022-11-12T07:13:16.895Z,9.510
2022-11-12T07:14:17.575Z,9.510
2022-11-12T07:15:17.517Z,9.5
2022-11-12T07:16:17.220Z,9.5
2022-11-12T07:17:17.058Z,9.510
2022-11-12T07:18:16.839Z,9.5
2022-11-12T07:19:17.537Z,9.520
2022-11-12T07:20:17.490Z,9.562
2022-11-12T07:21:17.153Z,9.541
2022-11-12T07:22:16.616Z,9.551
2022-11-12T07:23:17.943Z,9.5
2022-11-12T07:24:17.923Z,9.5
2022-11-12T07:25:17.868Z,9.520
2022-11-12T07:26:17.651Z,9.541
2022-11-12T07:27:17.396Z,9.531
2022-11-12T07:28:17.077Z,9.510
2022-11-12T07:29:30.068Z,9.510
2022-11-12T07:30:18.357Z,9.510
2022-11-12T07:31:22.339Z,9.5
2022-11-12T07:32:17.291Z,9.5
2022-11-12T07:33:17.037Z,9.5
2022-11-12T07:34:16.999Z,9.5
2022-11-12T07:35:16.894Z,9.5
2022-11-12T07:36:17.732Z,9.5
2022-11-12T07:37:17.607Z,9.520
2022-11-12T07:38:17.339Z,9.520
2022-11-12T07:39:17.164Z,9.510
2022-11-12T07:40:17.155Z,9.5
2022-11-12T07:41:21.830Z,9.5
2022-11-12T07:42:18.065Z,9.5
2022-11-12T07:43:24.963Z,9.5
2022-11-12T07:44:18.063Z,9.5
2022-11-12T07:45:16.983Z,9.5
2022-11-12T07:46:17.596Z,9.5
2022-11-12T07:47:17.261Z,9.5
2022-11-12T07:48:16.946Z,9.5
2022-11-12T07:49:17.710Z,9.520
2022-11-12T07:50:17.873Z,9.5
2022-11-12T07:51:17.850Z,9.520
2022-11-12T07:52:17.553Z,9.5
2022-11-12T07:53:17.265Z,9.544
2022-11-12T07:54:17.093Z,9.531
2022-11-12T07:55:25.148Z,9.551
2022-11-12T07:56:17.175Z,9.562
2022-11-12T07:57:17.118Z,9.562
2022-11-12T07:58:16.635Z,9.562
2022-11-12T07:59:17.515Z,9.535
2022-11-12T08:00:17.928Z,9.512
2022-11-12T08:01:17.849Z,9.562
2022-11-12T08:02:17.904Z,9.562
2022-11-12T08:03:17.675Z,9.562
2022-11-12T08:04:17.517Z,9.458
2022-11-12T08:05:26.090Z,9.541
2022-11-12T08:06:16.618Z,9.541
2022-11-12T08:07:31.768Z,9.562
2022-11-12T08:08:18.049Z,9.562
2022-11-12T08:09:16.814Z,9.604
2022-11-12T08:10:17.682Z,9.604
2022-11-12T08:11:17.499Z,9.625
2022-11-12T08:12:17.115Z,9.583
2022-11-12T08:13:16.874Z,9.5
2022-11-12T08:14:17.962Z,9.541
2022-11-12T08:15:18.075Z,9.477
2022-11-12T08:16:16.751Z,9.395
2022-11-12T08:17:17.563Z,9.375
2022-11-12T08:18:17.296Z,9.395
2022-11-12T08:19:17.016Z,9.437
2022-11-12T08:20:16.624Z,9.406
2022-11-12T08:21:17.439Z,9.406
2022-11-12T08:22:17.159Z,9.437
2022-11-12T08:23:44.509Z,9.489
2022-11-12T08:24:17.163Z,9.489
2022-11-12T08:25:17.157Z,9.5
2022-11-12T08:26:16.965Z,9.551
2022-11-12T08:27:17.865Z,9.604
2022-11-12T08:28:17.422Z,9.625
2022-11-12T08:29:17.451Z,9.625
2022-11-12T08:30:17.194Z,9.625
2022-11-12T08:31:17.449Z,9.666
2022-11-12T08:32:17.227Z,9.687
2022-11-12T08:33:16.986Z,9.666
2022-11-12T08:34:22.352Z,9.676
2022-11-12T08:35:17.687Z,9.687
2022-11-12T08:36:17.504Z,9.708
2022-11-12T08:37:17.282Z,9.687
2022-11-12T08:38:17.148Z,9.739
2022-11-12T08:39:17.128Z,9.75
2022-11-12T08:40:17.174Z,9.729
2022-11-12T08:41:16.901Z,9.687
2022-11-12T08:42:18.027Z,9.687
2022-11-12T08:43:16.429Z,9.729
2022-11-12T08:44:17.074Z,9.75
2022-11-12T08:45:16.973Z,9.75
2022-11-12T08:46:17.589Z,9.801
2022-11-12T08:47:17.351Z,9.781
2022-11-12T08:48:16.960Z,9.843
2022-11-12T08:49:18.629Z,9.875
2022-11-12T08:50:17.292Z,9.875
2022-11-12T08:51:17.045Z,9.875
2022-11-12T08:52:16.766Z,9.843
2022-11-12T08:53:17.727Z,9.875
2022-11-12T08:54:17.669Z,9.885
2022-11-12T08:55:17.409Z,9.926
2022-11-12T08:56:17.157Z,9.926
2022-11-12T08:57:16.917Z,9.926
2022-11-12T08:58:17.652Z,9.937
2022-11-12T08:59:17.303Z,9.937
2022-11-12T09:00:17.679Z,9.937
2022-11-12T09:01:17.610Z,9.947
2022-11-12T09:02:17.321Z,9.979
2022-11-12T09:03:17.439Z,10
2022-11-12T09:04:17.093Z,9.989
2022-11-12T09:05:16.779Z,10
2022-11-12T09:06:18.055Z,10
2022-11-12T09:07:54.957Z,9.989
2022-11-12T09:08:16.888Z,9.989
2022-11-12T09:09:18.119Z,10
2022-11-12T09:10:17.079Z,10
2022-11-12T09:11:17.122Z,10
2022-11-12T09:13:17.044Z,10
2022-11-12T09:14:16.916Z,10
2022-11-12T09:15:44.285Z,10.03
2022-11-12T09:16:17.109Z,10.03
2022-11-12T09:17:16.846Z,10.06
2022-11-12T09:18:17.676Z,10.06
2022-11-12T09:19:17.500Z,10.06
2022-11-12T09:20:17.372Z,10.06
2022-11-12T09:21:17.263Z,10.06
2022-11-12T09:22:16.963Z,10.06
2022-11-12T09:23:18.016Z,10.06
2022-11-12T09:24:16.815Z,10.06
2022-11-12T09:25:17.700Z,10.07
2022-11-12T09:26:17.359Z,10.11
2022-11-12T09:27:16.956Z,10.12
2022-11-12T09:28:17.902Z,10.12
2022-11-12T09:29:17.776Z,10.12
2022-11-12T09:30:17.836Z,10.12
2022-11-12T09:31:17.639Z,10.12
2022-11-12T09:32:17.763Z,10.12
2022-11-12T09:33:17.709Z,10.12
2022-11-12T09:34:17.633Z,10.12
2022-11-12T09:35:17.440Z,10.12
2022-11-12T09:36:17.072Z,10.14
2022-11-12T09:37:16.722Z,10.15
2022-11-12T09:38:17.735Z,10.18
2022-11-12T09:39:17.772Z,10.18
2022-11-12T09:40:17.770Z,10.18
2022-11-12T09:41:17.770Z,10.18
2022-11-12T09:42:17.735Z,10.18
2022-11-12T09:43:17.503Z,10.18
2022-11-12T09:44:17.356Z,10.18
2022-11-12T09:45:17.476Z,10.18
2022-11-12T09:46:33.986Z,10.22
2022-11-12T09:47:16.894Z,10.22
2022-11-12T09:48:17.361Z,10.25
2022-11-12T09:49:17.003Z,10.25
2022-11-12T09:50:17.141Z,10.25
2022-11-12T09:51:17.154Z,10.25
2022-11-12T09:53:17.415Z,10.25
2022-11-12T09:54:17.320Z,10.25
2022-11-12T09:55:17.316Z,10.25
2022-11-12T09:56:17.041Z,10.25
2022-11-12T09:57:17.317Z,10.25
2022-11-12T09:58:17.190Z,10.25
2022-11-12T09:59:17.192Z,10.25
2022-11-12T10:00:17.925Z,10.25
2022-11-12T10:01:18.235Z,10.25
2022-11-12T10:02:17.183Z,10.25
2022-11-12T10:03:17.008Z,10.25
2022-11-12T10:04:17.214Z,10.25
2022-11-12T10:05:17.353Z,10.25
2022-11-12T10:06:19.424Z,10.25
2022-11-12T10:07:18.418Z,10.25
2022-11-12T10:08:18.128Z,10.25
2022-11-12T10:09:17.115Z,10.26
2022-11-12T10:10:17.078Z,10.27
2022-11-12T10:11:16.987Z,10.30
2022-11-12T10:12:17.107Z,10.29
2022-11-12T10:13:17.420Z,10.31
2022-11-12T10:14:17.417Z,10.31
2022-11-12T10:15:17.914Z,10.31
2022-11-12T10:16:18.077Z,10.31
2022-11-12T10:17:17.661Z,10.31
2022-11-12T10:18:18.128Z,10.33
2022-11-12T10:19:16.954Z,10.36
2022-11-12T10:20:18.131Z,10.37
2022-11-12T10:21:17.157Z,10.37
2022-11-12T10:22:16.902Z,10.37
2022-11-12T10:23:18.019Z,10.37
2022-11-12T10:24:17.066Z,10.37
2022-11-12T10:25:17.108Z,10.37
2022-11-12T10:26:31.088Z,10.37
2022-11-12T10:27:16.796Z,10.37
2022-11-12T10:28:17.648Z,10.37
2022-11-12T10:29:17.630Z,10.37
2022-11-12T10:30:18.071Z,10.37
2022-11-12T10:31:17.336Z,10.38
2022-11-12T10:32:17.662Z,10.37
2022-11-12T10:33:17.714Z,10.40
2022-11-12T10:34:18.056Z,10.42
2022-11-12T10:35:17.039Z,10.43
2022-11-12T10:36:17.192Z,10.43
2022-11-12T10:37:17.147Z,10.43
2022-11-12T10:38:17.315Z,10.43
2022-11-12T10:39:17.464Z,10.43
2022-11-12T10:40:17.483Z,10.43
2022-11-12T10:41:17.348Z,10.43
2022-11-12T10:42:17.156Z,10.43
2022-11-12T10:43:16.802Z,10.43
2022-11-12T10:44:17.658Z,10.43
2022-11-12T10:45:18.003Z,10.43
2022-11-12T10:46:17.080Z,10.43
2022-11-12T10:47:16.840Z,10.43
2022-11-12T10:48:17.676Z,10.43
2022-11-12T10:49:17.522Z,10.44
2022-11-12T10:50:17.433Z,10.5
2022-11-12T10:51:17.268Z,10.5
2022-11-12T10:52:17.091Z,10.5
2022-11-12T10:53:17.033Z,10.5
2022-11-12T10:54:16.743Z,10.5
2022-11-12T10:55:17.772Z,10.5
2022-11-12T10:56:17.494Z,10.5
2022-11-12T10:57:17.166Z,10.5
2022-11-12T10:58:17.096Z,10.5
2022-11-12T10:59:16.698Z,10.5
2022-11-12T11:00:18.729Z,10.5
2022-11-12T11:01:17.873Z,10.5
2022-11-12T11:02:17.825Z,10.5
2022-11-12T11:03:17.640Z,10.5
2022-11-12T11:04:17.451Z,10.5
2022-11-12T11:05:17.497Z,10.5
2022-11-12T11:06:17.378Z,10.5
2022-11-12T11:07:17.649Z,10.5
2022-11-12T11:08:17.670Z,10.5
2022-11-12T11:09:17.504Z,10.51
2022-11-12T11:10:17.797Z,10.52
2022-11-12T11:11:17.893Z,10.54
2022-11-12T11:12:17.915Z,10.54
2022-11-12T11:13:18.283Z,10.56
2022-11-12T11:14:17.164Z,10.54
2022-11-12T11:15:17.137Z,10.56
2022-11-12T11:16:17.049Z,10.56
2022-11-12T11:17:17.303Z,10.56
2022-11-12T11:18:17.336Z,10.56
2022-11-12T11:19:17.256Z,10.56
2022-11-12T11:20:17.296Z,10.56
2022-11-12T11:21:17.504Z,10.56
2022-11-12T11:22:17.428Z,10.56
2022-11-12T11:23:17.552Z,10.56
2022-11-12T11:24:17.498Z,10.56
2022-11-12T11:25:17.810Z,10.56
2022-11-12T11:26:17.924Z,10.57
2022-11-12T11:27:18.027Z,10.59
2022-11-12T11:28:17.114Z,10.62
2022-11-12T11:29:17.078Z,10.62
2022-11-12T11:30:17.187Z,10.62
2022-11-12T11:31:17.147Z,10.62
2022-11-12T11:32:17.121Z,10.62
2022-11-12T11:33:17.248Z,10.62
2022-11-12T11:34:16.942Z,10.62
2022-11-12T11:35:18.006Z,10.62
2022-11-12T11:36:17.016Z,10.62
2022-11-12T11:37:16.581Z,10.62
2022-11-12T11:38:17.242Z,10.64
2022-11-12T11:39:17.135Z,10.62
2022-11-12T11:40:17.219Z,10.65
2022-11-12T11:41:17.092Z,10.63
2022-11-12T11:42:16.994Z,10.63
2022-11-12T11:43:16.440Z,10.64
2022-11-12T11:44:20.359Z,10.66
2022-11-12T11:45:17.589Z,10.67
2022-11-12T11:46:17.589Z,10.67
2022-11-12T11:47:17.626Z,10.68
2022-11-12T11:48:17.723Z,10.68
2022-11-12T11:49:17.946Z,10.68
2022-11-12T11:50:18.191Z,10.68
2022-11-12T11:51:20.944Z,10.68
2022-11-12T11:52:17.455Z,10.68
2022-11-12T11:53:17.765Z,10.68
2022-11-12T11:54:18.175Z,10.68
2022-11-12T11:55:17.480Z,10.68
2022-11-12T11:56:17.589Z,10.68
2022-11-12T11:57:17.977Z,10.68
2022-11-12T11:58:18.033Z,10.68
2022-11-12T11:59:17.044Z,10.68
2022-11-12T12:00:18.242Z,10.68
2022-11-12T12:01:17.362Z,10.69
2022-11-12T12:02:17.180Z,10.68
2022-11-12T12:03:17.319Z,10.69
2022-11-12T12:04:17.449Z,10.71
2022-11-12T12:05:17.324Z,10.71
2022-11-12T12:06:17.009Z,10.75
2022-11-12T12:07:17.169Z,10.75
2022-11-12T12:08:17.205Z,10.75
2022-11-12T12:09:17.646Z,10.75
2022-11-12T12:10:17.951Z,10.75
2022-11-12T12:11:18.054Z,10.75
2022-11-12T12:12:17.013Z,10.75
2022-11-12T12:13:17.239Z,10.75
2022-11-12T12:14:17.264Z,10.75
2022-11-12T12:15:17.447Z,10.75
2022-11-12T12:16:17.178Z,10.75
2022-11-12T12:17:17.057Z,10.75
2022-11-12T12:18:16.595Z,10.77
2022-11-12T12:19:17.979Z,10.75
2022-11-12T12:20:17.896Z,10.75
2022-11-12T12:21:18.005Z,10.75
2022-11-12T12:22:16.817Z,10.78
2022-11-12T12:23:18.174Z,10.78
2022-11-12T12:24:17.150Z,10.81
2022-11-12T12:25:17.407Z,10.81
2022-11-12T12:26:17.588Z,10.81
2022-11-12T12:27:17.738Z,10.81
2022-11-12T12:28:17.856Z,10.81
2022-11-12T12:29:18.074Z,10.81
2022-11-12T12:30:17.295Z,10.81
2022-11-12T12:31:17.530Z,10.81
2022-11-12T12:32:21.717Z,10.81
2022-11-12T12:33:17.091Z,10.81
2022-11-12T12:34:16.905Z,10.81
2022-11-12T12:35:18.252Z,10.81
2022-11-12T12:36:17.025Z,10.81
2022-11-12T12:37:16.860Z,10.81
2022-11-12T12:38:18.069Z,10.81
2022-11-12T12:39:17.192Z,10.82
2022-11-12T12:40:17.573Z,10.85
2022-11-12T12:41:17.706Z,10.86
2022-11-12T12:42:17.613Z,10.85
2022-11-12T12:43:17.570Z,10.87
2022-11-12T12:44:17.571Z,10.87
2022-11-12T12:45:17.580Z,10.87
2022-11-12T12:46:17.279Z,10.87
2022-11-12T12:47:17.502Z,10.87
2022-11-12T12:48:17.585Z,10.87
2022-11-12T12:49:25.527Z,10.87
2022-11-12T12:50:18.125Z,10.87
2022-11-12T12:51:25.013Z,10.87
2022-11-12T12:52:16.934Z,10.87
2022-11-12T12:53:18.017Z,10.87
2022-11-12T12:54:16.768Z,10.87
2022-11-12T12:55:17.823Z,10.87
2022-11-12T12:56:17.446Z,10.87
2022-11-12T12:57:17.277Z,10.87
2022-11-12T12:58:17.207Z,10.87
2022-11-12T12:59:17.135Z,10.89
2022-11-12T13:00:22.086Z,10.91
2022-11-12T13:01:17.373Z,10.91
2022-11-12T13:02:17.197Z,10.93